sensor_id;sensor_type;location;lat;lon;timestamp;P1;durP1;ratioP1;P2;durP2;ratioP2
56637;SDS011;42507;51.982;20.140;2022-08-19T00:00:29;11.35;;;9.35;;
56637;SDS011;42507;51.982;20.140;2022-08-19T00:02:57;12.53;;;10.30;;
56637;SDS011;42507;51.982;20.140;2022-08-19T00:05:24;13.45;;;10.40;;
56637;SDS011;42507;51.982;20.140;2022-08-19T00:07:50;15.10;;;10.45;;
56637;SDS011;42507;51.982;20.140;2022-08-19T00:10:17;13.08;;;10.60;;
56637;SDS011;42507;51.982;20.140;2022-08-19T00:12:44;12.93;;;10.68;;
56637;SDS011;42507;51.982;20.140;2022-08-19T00:15:11;16.42;;;10.38;;
56637;SDS011;42507;51.982;20.140;2022-08-19T00:17:40;14.55;;;10.53;;
56637;SDS011;42507;51.982;20.140;2022-08-19T00:20:11;12.28;;;9.80;;
56637;SDS011;42507;51.982;20.140;2022-08-19T00:22:43;13.90;;;9.83;;
56637;SDS011;42507;51.982;20.140;2022-08-19T00:25:10;16.75;;;10.58;;
56637;SDS011;42507;51.982;20.140;2022-08-19T00:27:37;13.32;;;10.78;;
56637;SDS011;42507;51.982;20.140;2022-08-19T00:30:04;12.60;;;9.90;;
56637;SDS011;42507;51.982;20.140;2022-08-19T00:32:32;15.75;;;11.63;;
56637;SDS011;42507;51.982;20.140;2022-08-19T00:35:00;20.68;;;13.08;;
56637;SDS011;42507;51.982;20.140;2022-08-19T00:37:27;17.95;;;11.68;;
56637;SDS011;42507;51.982;20.140;2022-08-19T00:39:54;13.00;;;9.93;;
56637;SDS011;42507;51.982;20.140;2022-08-19T00:42:21;14.83;;;11.00;;
56637;SDS011;42507;51.982;20.140;2022-08-19T00:44:48;13.05;;;10.45;;
56637;SDS011;42507;51.982;20.140;2022-08-19T00:47:15;18.30;;;10.55;;
56637;SDS011;42507;51.982;20.140;2022-08-19T00:52:18;12.45;;;10.85;;
56637;SDS011;42507;51.982;20.140;2022-08-19T00:54:49;18.55;;;11.83;;
56637;SDS011;42507;51.982;20.140;2022-08-19T00:57:18;15.20;;;11.15;;
56637;SDS011;42507;51.982;20.140;2022-08-19T00:59:51;14.85;;;11.55;;
56637;SDS011;42507;51.982;20.140;2022-08-19T01:02:19;16.85;;;11.38;;
56637;SDS011;42507;51.982;20.140;2022-08-19T01:04:45;16.25;;;11.55;;
56637;SDS011;42507;51.982;20.140;2022-08-19T01:07:11;17.82;;;11.90;;
56637;SDS011;42507;51.982;20.140;2022-08-19T01:09:38;15.03;;;10.72;;
56637;SDS011;42507;51.982;20.140;2022-08-19T01:12:04;11.85;;;10.53;;
56637;SDS011;42507;51.982;20.140;2022-08-19T01:14:31;14.33;;;12.15;;
56637;SDS011;42507;51.982;20.140;2022-08-19T01:16:57;17.87;;;11.33;;
56637;SDS011;42507;51.982;20.140;2022-08-19T01:19:27;14.55;;;11.55;;
56637;SDS011;42507;51.982;20.140;2022-08-19T01:22:46;16.37;;;11.78;;
56637;SDS011;42507;51.982;20.140;2022-08-19T01:24:34;14.90;;;11.53;;
56637;SDS011;42507;51.982;20.140;2022-08-19T01:27:03;15.15;;;11.35;;
56637;SDS011;42507;51.982;20.140;2022-08-19T01:29:33;15.35;;;10.50;;
56637;SDS011;42507;51.982;20.140;2022-08-19T01:32:00;14.83;;;12.25;;
56637;SDS011;42507;51.982;20.140;2022-08-19T01:34:27;12.80;;;11.03;;
56637;SDS011;42507;51.982;20.140;2022-08-19T01:36:53;12.88;;;11.22;;
56637;SDS011;42507;51.982;20.140;2022-08-19T01:39:21;14.28;;;11.12;;
56637;SDS011;42507;51.982;20.140;2022-08-19T01:41:50;14.58;;;11.20;;
56637;SDS011;42507;51.982;20.140;2022-08-19T01:44:19;16.10;;;11.45;;
56637;SDS011;42507;51.982;20.140;2022-08-19T01:46:48;12.45;;;10.90;;
56637;SDS011;42507;51.982;20.140;2022-08-19T01:49:15;17.90;;;11.88;;
56637;SDS011;42507;51.982;20.140;2022-08-19T01:51:47;18.07;;;10.58;;
56637;SDS011;42507;51.982;20.140;2022-08-19T01:54:15;13.53;;;11.20;;
56637;SDS011;42507;51.982;20.140;2022-08-19T01:56:43;12.10;;;10.38;;
56637;SDS011;42507;51.982;20.140;2022-08-19T01:59:14;14.70;;;10.60;;
56637;SDS011;42507;51.982;20.140;2022-08-19T02:01:43;16.17;;;11.55;;
56637;SDS011;42507;51.982;20.140;2022-08-19T02:04:09;14.43;;;10.88;;
56637;SDS011;42507;51.982;20.140;2022-08-19T02:06:35;13.65;;;11.25;;
56637;SDS011;42507;51.982;20.140;2022-08-19T02:09:02;15.78;;;11.15;;
56637;SDS011;42507;51.982;20.140;2022-08-19T02:11:32;12.30;;;9.78;;
56637;SDS011;42507;51.982;20.140;2022-08-19T02:14:01;14.38;;;10.72;;
56637;SDS011;42507;51.982;20.140;2022-08-19T02:16:31;14.03;;;12.23;;
56637;SDS011;42507;51.982;20.140;2022-08-19T02:18:58;14.85;;;11.05;;
56637;SDS011;42507;51.982;20.140;2022-08-19T02:21:26;17.15;;;11.38;;
56637;SDS011;42507;51.982;20.140;2022-08-19T02:23:53;14.78;;;11.45;;
56637;SDS011;42507;51.982;20.140;2022-08-19T02:26:21;12.93;;;10.45;;
56637;SDS011;42507;51.982;20.140;2022-08-19T02:28:47;13.98;;;11.20;;
56637;SDS011;42507;51.982;20.140;2022-08-19T02:31:15;14.50;;;10.28;;
56637;SDS011;42507;51.982;20.140;2022-08-19T02:33:45;17.17;;;11.05;;
56637;SDS011;42507;51.982;20.140;2022-08-19T02:36:13;15.35;;;11.78;;
56637;SDS011;42507;51.982;20.140;2022-08-19T02:38:41;13.05;;;11.53;;
56637;SDS011;42507;51.982;20.140;2022-08-19T02:41:16;17.67;;;11.50;;
56637;SDS011;42507;51.982;20.140;2022-08-19T02:43:46;13.18;;;10.85;;
56637;SDS011;42507;51.982;20.140;2022-08-19T02:48:50;15.93;;;12.13;;
56637;SDS011;42507;51.982;20.140;2022-08-19T02:51:20;13.40;;;10.60;;
56637;SDS011;42507;51.982;20.140;2022-08-19T02:53:52;18.05;;;11.70;;
56637;SDS011;42507;51.982;20.140;2022-08-19T02:56:19;12.33;;;10.25;;
56637;SDS011;42507;51.982;20.140;2022-08-19T02:58:46;13.95;;;11.38;;
56637;SDS011;42507;51.982;20.140;2022-08-19T03:01:35;16.75;;;10.60;;
56637;SDS011;42507;51.982;20.140;2022-08-19T03:03:56;18.05;;;12.03;;
56637;SDS011;42507;51.982;20.140;2022-08-19T03:06:25;11.57;;;10.38;;
56637;SDS011;42507;51.982;20.140;2022-08-19T03:08:51;16.70;;;11.45;;
56637;SDS011;42507;51.982;20.140;2022-08-19T03:11:23;16.23;;;11.28;;
56637;SDS011;42507;51.982;20.140;2022-08-19T03:13:52;15.40;;;10.70;;
56637;SDS011;42507;51.982;20.140;2022-08-19T03:16:20;14.63;;;10.88;;
56637;SDS011;42507;51.982;20.140;2022-08-19T03:18:48;15.60;;;11.93;;
56637;SDS011;42507;51.982;20.140;2022-08-19T03:21:19;17.10;;;13.15;;
56637;SDS011;42507;51.982;20.140;2022-08-19T03:23:49;14.60;;;11.90;;
56637;SDS011;42507;51.982;20.140;2022-08-19T03:26:18;18.12;;;13.43;;
56637;SDS011;42507;51.982;20.140;2022-08-19T03:28:44;17.98;;;12.13;;
56637;SDS011;42507;51.982;20.140;2022-08-19T03:31:16;16.37;;;12.30;;
56637;SDS011;42507;51.982;20.140;2022-08-19T03:33:47;14.60;;;13.00;;
56637;SDS011;42507;51.982;20.140;2022-08-19T03:36:16;17.80;;;12.55;;
56637;SDS011;42507;51.982;20.140;2022-08-19T03:38:49;18.98;;;12.07;;
56637;SDS011;42507;51.982;20.140;2022-08-19T03:41:23;18.82;;;12.28;;
56637;SDS011;42507;51.982;20.140;2022-08-19T03:43:52;14.00;;;12.33;;
56637;SDS011;42507;51.982;20.140;2022-08-19T03:46:20;17.50;;;12.93;;
56637;SDS011;42507;51.982;20.140;2022-08-19T03:48:53;20.00;;;12.73;;
56637;SDS011;42507;51.982;20.140;2022-08-19T03:51:27;13.95;;;12.23;;
56637;SDS011;42507;51.982;20.140;2022-08-19T03:53:59;21.40;;;13.20;;
56637;SDS011;42507;51.982;20.140;2022-08-19T03:56:28;19.05;;;12.63;;
56637;SDS011;42507;51.982;20.140;2022-08-19T03:58:54;18.15;;;12.33;;
56637;SDS011;42507;51.982;20.140;2022-08-19T04:01:23;20.37;;;12.73;;
56637;SDS011;42507;51.982;20.140;2022-08-19T04:03:52;16.85;;;11.70;;
56637;SDS011;42507;51.982;20.140;2022-08-19T04:06:20;16.70;;;11.00;;
56637;SDS011;42507;51.982;20.140;2022-08-19T04:08:50;16.35;;;11.83;;
56637;SDS011;42507;51.982;20.140;2022-08-19T04:11:21;19.80;;;11.83;;
56637;SDS011;42507;51.982;20.140;2022-08-19T04:13:51;14.30;;;10.58;;
56637;SDS011;42507;51.982;20.140;2022-08-19T04:16:18;17.77;;;11.65;;
56637;SDS011;42507;51.982;20.140;2022-08-19T04:18:46;15.40;;;11.38;;
56637;SDS011;42507;51.982;20.140;2022-08-19T04:21:17;13.28;;;11.25;;
56637;SDS011;42507;51.982;20.140;2022-08-19T04:23:50;15.23;;;10.75;;
56637;SDS011;42507;51.982;20.140;2022-08-19T04:26:17;13.88;;;10.90;;
56637;SDS011;42507;51.982;20.140;2022-08-19T04:28:47;15.18;;;10.60;;
56637;SDS011;42507;51.982;20.140;2022-08-19T04:31:15;13.20;;;10.23;;
56637;SDS011;42507;51.982;20.140;2022-08-19T04:33:45;15.40;;;10.45;;
56637;SDS011;42507;51.982;20.140;2022-08-19T04:36:22;13.75;;;10.15;;
56637;SDS011;42507;51.982;20.140;2022-08-19T04:38:52;16.27;;;12.03;;
56637;SDS011;42507;51.982;20.140;2022-08-19T04:41:23;18.25;;;11.83;;
56637;SDS011;42507;51.982;20.140;2022-08-19T04:44:08;13.55;;;9.95;;
56637;SDS011;42507;51.982;20.140;2022-08-19T04:46:34;21.37;;;11.80;;
56637;SDS011;42507;51.982;20.140;2022-08-19T04:49:01;14.43;;;11.63;;
56637;SDS011;42507;51.982;20.140;2022-08-19T04:51:30;15.60;;;11.03;;
56637;SDS011;42507;51.982;20.140;2022-08-19T04:53:58;21.10;;;12.37;;
56637;SDS011;42507;51.982;20.140;2022-08-19T04:56:26;18.92;;;11.90;;
56637;SDS011;42507;51.982;20.140;2022-08-19T04:58:53;17.75;;;11.03;;
56637;SDS011;42507;51.982;20.140;2022-08-19T05:01:23;19.42;;;10.72;;
56637;SDS011;42507;51.982;20.140;2022-08-19T05:03:54;13.98;;;10.78;;
56637;SDS011;42507;51.982;20.140;2022-08-19T05:06:22;15.48;;;11.25;;
56637;SDS011;42507;51.982;20.140;2022-08-19T05:08:49;13.80;;;11.35;;
56637;SDS011;42507;51.982;20.140;2022-08-19T05:11:19;13.98;;;10.43;;
56637;SDS011;42507;51.982;20.140;2022-08-19T05:13:55;16.37;;;11.38;;
56637;SDS011;42507;51.982;20.140;2022-08-19T05:16:22;19.52;;;10.20;;
56637;SDS011;42507;51.982;20.140;2022-08-19T05:18:50;16.65;;;10.78;;
56637;SDS011;42507;51.982;20.140;2022-08-19T05:21:35;15.50;;;10.03;;
56637;SDS011;42507;51.982;20.140;2022-08-19T05:24:20;17.85;;;10.78;;
56637;SDS011;42507;51.982;20.140;2022-08-19T05:26:49;14.75;;;10.88;;
56637;SDS011;42507;51.982;20.140;2022-08-19T05:29:18;12.13;;;10.35;;
56637;SDS011;42507;51.982;20.140;2022-08-19T05:31:47;18.17;;;11.28;;
56637;SDS011;42507;51.982;20.140;2022-08-19T05:34:15;17.82;;;10.93;;
56637;SDS011;42507;51.982;20.140;2022-08-19T05:36:44;12.45;;;10.20;;
56637;SDS011;42507;51.982;20.140;2022-08-19T05:39:12;10.58;;;9.53;;
56637;SDS011;42507;51.982;20.140;2022-08-19T05:41:42;12.45;;;9.25;;
56637;SDS011;42507;51.982;20.140;2022-08-19T05:44:10;15.13;;;10.10;;
56637;SDS011;42507;51.982;20.140;2022-08-19T05:46:37;14.40;;;10.20;;
56637;SDS011;42507;51.982;20.140;2022-08-19T05:49:05;15.23;;;9.85;;
56637;SDS011;42507;51.982;20.140;2022-08-19T05:51:33;11.40;;;9.60;;
56637;SDS011;42507;51.982;20.140;2022-08-19T05:54:01;13.93;;;9.63;;
56637;SDS011;42507;51.982;20.140;2022-08-19T05:56:27;11.45;;;8.83;;
56637;SDS011;42507;51.982;20.140;2022-08-19T05:58:56;13.45;;;9.23;;
56637;SDS011;42507;51.982;20.140;2022-08-19T06:01:24;10.75;;;8.78;;
56637;SDS011;42507;51.982;20.140;2022-08-19T06:03:52;15.80;;;10.28;;
56637;SDS011;42507;51.982;20.140;2022-08-19T06:06:18;17.50;;;10.88;;
56637;SDS011;42507;51.982;20.140;2022-08-19T06:08:45;17.52;;;10.15;;
56637;SDS011;42507;51.982;20.140;2022-08-19T06:11:20;13.13;;;9.68;;
56637;SDS011;42507;51.982;20.140;2022-08-19T06:13:53;11.35;;;9.55;;
56637;SDS011;42507;51.982;20.140;2022-08-19T06:16:20;15.43;;;9.40;;
56637;SDS011;42507;51.982;20.140;2022-08-19T06:18:53;12.25;;;9.30;;
56637;SDS011;42507;51.982;20.140;2022-08-19T06:21:20;11.03;;;8.90;;
56637;SDS011;42507;51.982;20.140;2022-08-19T06:23:49;15.30;;;9.10;;
56637;SDS011;42507;51.982;20.140;2022-08-19T06:26:16;15.15;;;9.63;;
56637;SDS011;42507;51.982;20.140;2022-08-19T06:28:43;13.15;;;9.03;;
56637;SDS011;42507;51.982;20.140;2022-08-19T06:31:15;11.28;;;9.15;;
56637;SDS011;42507;51.982;20.140;2022-08-19T06:33:50;15.65;;;9.45;;
56637;SDS011;42507;51.982;20.140;2022-08-19T06:36:22;14.20;;;8.40;;
56637;SDS011;42507;51.982;20.140;2022-08-19T06:38:50;16.40;;;9.65;;
56637;SDS011;42507;51.982;20.140;2022-08-19T06:41:17;9.20;;;8.03;;
56637;SDS011;42507;51.982;20.140;2022-08-19T06:43:43;14.33;;;9.83;;
56637;SDS011;42507;51.982;20.140;2022-08-19T06:46:10;10.58;;;9.50;;
56637;SDS011;42507;51.982;20.140;2022-08-19T06:48:39;10.60;;;9.33;;
56637;SDS011;42507;51.982;20.140;2022-08-19T06:51:05;10.50;;;8.78;;
56637;SDS011;42507;51.982;20.140;2022-08-19T06:53:32;15.60;;;9.30;;
56637;SDS011;42507;51.982;20.140;2022-08-19T06:55:59;14.15;;;9.20;;
56637;SDS011;42507;51.982;20.140;2022-08-19T06:58:30;11.70;;;9.78;;
56637;SDS011;42507;51.982;20.140;2022-08-19T07:01:02;11.70;;;9.75;;
56637;SDS011;42507;51.982;20.140;2022-08-19T07:03:29;14.10;;;9.35;;
56637;SDS011;42507;51.982;20.140;2022-08-19T07:06:02;14.18;;;9.60;;
56637;SDS011;42507;51.982;20.140;2022-08-19T07:08:36;14.85;;;9.33;;
56637;SDS011;42507;51.982;20.140;2022-08-19T07:11:06;20.23;;;9.85;;
56637;SDS011;42507;51.982;20.140;2022-08-19T07:13:35;17.07;;;9.90;;
56637;SDS011;42507;51.982;20.140;2022-08-19T07:16:06;14.60;;;9.35;;
56637;SDS011;42507;51.982;20.140;2022-08-19T07:18:34;9.58;;;8.50;;
56637;SDS011;42507;51.982;20.140;2022-08-19T07:21:02;12.53;;;9.00;;
56637;SDS011;42507;51.982;20.140;2022-08-19T07:23:37;8.83;;;7.83;;
56637;SDS011;42507;51.982;20.140;2022-08-19T07:26:05;10.23;;;8.30;;
56637;SDS011;42507;51.982;20.140;2022-08-19T07:28:35;15.40;;;9.13;;
56637;SDS011;42507;51.982;20.140;2022-08-19T07:31:03;12.73;;;8.63;;
56637;SDS011;42507;51.982;20.140;2022-08-19T07:33:33;11.83;;;8.95;;
56637;SDS011;42507;51.982;20.140;2022-08-19T07:36:03;11.43;;;8.28;;
56637;SDS011;42507;51.982;20.140;2022-08-19T07:38:31;9.48;;;7.80;;
56637;SDS011;42507;51.982;20.140;2022-08-19T07:40:59;12.10;;;8.10;;
56637;SDS011;42507;51.982;20.140;2022-08-19T07:43:26;10.60;;;8.83;;
56637;SDS011;42507;51.982;20.140;2022-08-19T07:45:53;9.20;;;8.13;;
56637;SDS011;42507;51.982;20.140;2022-08-19T07:48:24;12.82;;;8.55;;
56637;SDS011;42507;51.982;20.140;2022-08-19T07:50:53;13.85;;;8.43;;
56637;SDS011;42507;51.982;20.140;2022-08-19T07:53:23;11.57;;;8.25;;
56637;SDS011;42507;51.982;20.140;2022-08-19T07:55:50;12.98;;;7.92;;
56637;SDS011;42507;51.982;20.140;2022-08-19T07:58:18;10.20;;;7.95;;
56637;SDS011;42507;51.982;20.140;2022-08-19T08:00:47;10.10;;;7.70;;
56637;SDS011;42507;51.982;20.140;2022-08-19T08:03:17;14.38;;;7.65;;
56637;SDS011;42507;51.982;20.140;2022-08-19T08:05:46;10.63;;;7.70;;
56637;SDS011;42507;51.982;20.140;2022-08-19T08:08:31;11.80;;;7.85;;
56637;SDS011;42507;51.982;20.140;2022-08-19T08:11:17;11.88;;;7.90;;
56637;SDS011;42507;51.982;20.140;2022-08-19T08:13:45;10.50;;;7.87;;
56637;SDS011;42507;51.982;20.140;2022-08-19T08:16:13;10.82;;;7.60;;
56637;SDS011;42507;51.982;20.140;2022-08-19T08:18:41;9.80;;;7.97;;
56637;SDS011;42507;51.982;20.140;2022-08-19T08:21:08;8.70;;;7.28;;
56637;SDS011;42507;51.982;20.140;2022-08-19T08:23:35;9.20;;;7.92;;
56637;SDS011;42507;51.982;20.140;2022-08-19T08:26:01;13.03;;;7.72;;
56637;SDS011;42507;51.982;20.140;2022-08-19T08:28:29;11.90;;;7.60;;
56637;SDS011;42507;51.982;20.140;2022-08-19T08:30:55;11.45;;;7.47;;
56637;SDS011;42507;51.982;20.140;2022-08-19T08:33:24;10.10;;;7.33;;
56637;SDS011;42507;51.982;20.140;2022-08-19T08:35:52;9.98;;;7.25;;
56637;SDS011;42507;51.982;20.140;2022-08-19T08:38:18;8.73;;;7.10;;
56637;SDS011;42507;51.982;20.140;2022-08-19T08:40:47;12.35;;;8.20;;
56637;SDS011;42507;51.982;20.140;2022-08-19T08:43:31;13.13;;;7.97;;
56637;SDS011;42507;51.982;20.140;2022-08-19T08:46:09;10.93;;;7.72;;
56637;SDS011;42507;51.982;20.140;2022-08-19T08:48:45;10.78;;;7.42;;
56637;SDS011;42507;51.982;20.140;2022-08-19T08:51:34;15.80;;;8.13;;
56637;SDS011;42507;51.982;20.140;2022-08-19T08:54:15;10.72;;;7.53;;
56637;SDS011;42507;51.982;20.140;2022-08-19T08:56:45;7.85;;;6.90;;
56637;SDS011;42507;51.982;20.140;2022-08-19T08:59:22;14.15;;;8.13;;
56637;SDS011;42507;51.982;20.140;2022-08-19T09:01:58;10.35;;;7.60;;
56637;SDS011;42507;51.982;20.140;2022-08-19T09:04:25;9.15;;;7.62;;
56637;SDS011;42507;51.982;20.140;2022-08-19T09:06:54;9.23;;;6.97;;
56637;SDS011;42507;51.982;20.140;2022-08-19T09:09:52;7.83;;;6.95;;
56637;SDS011;42507;51.982;20.140;2022-08-19T09:15:06;9.55;;;7.42;;
56637;SDS011;42507;51.982;20.140;2022-08-19T09:17:36;18.15;;;7.47;;
56637;SDS011;42507;51.982;20.140;2022-08-19T09:20:06;9.78;;;6.75;;
56637;SDS011;42507;51.982;20.140;2022-08-19T09:22:47;9.45;;;7.05;;
56637;SDS011;42507;51.982;20.140;2022-08-19T09:25:15;7.50;;;6.65;;
56637;SDS011;42507;51.982;20.140;2022-08-19T09:27:47;9.83;;;7.45;;
56637;SDS011;42507;51.982;20.140;2022-08-19T09:30:19;11.25;;;7.05;;
56637;SDS011;42507;51.982;20.140;2022-08-19T09:32:51;10.48;;;6.75;;
56637;SDS011;42507;51.982;20.140;2022-08-19T09:35:20;11.97;;;7.33;;
56637;SDS011;42507;51.982;20.140;2022-08-19T09:37:48;7.00;;;5.92;;
56637;SDS011;42507;51.982;20.140;2022-08-19T09:40:15;15.03;;;6.53;;
56637;SDS011;42507;51.982;20.140;2022-08-19T09:42:43;11.55;;;6.55;;
56637;SDS011;42507;51.982;20.140;2022-08-19T09:45:16;8.98;;;6.60;;
56637;SDS011;42507;51.982;20.140;2022-08-19T09:47:46;16.02;;;6.75;;
56637;SDS011;42507;51.982;20.140;2022-08-19T09:50:13;8.65;;;6.05;;
56637;SDS011;42507;51.982;20.140;2022-08-19T09:52:39;9.05;;;7.08;;
56637;SDS011;42507;51.982;20.140;2022-08-19T09:55:08;9.10;;;6.42;;
56637;SDS011;42507;51.982;20.140;2022-08-19T09:57:35;8.93;;;7.12;;
56637;SDS011;42507;51.982;20.140;2022-08-19T10:00:03;10.55;;;7.30;;
56637;SDS011;42507;51.982;20.140;2022-08-19T10:02:33;6.83;;;5.92;;
56637;SDS011;42507;51.982;20.140;2022-08-19T10:05:00;7.50;;;6.05;;
56637;SDS011;42507;51.982;20.140;2022-08-19T10:07:45;9.23;;;8.05;;
56637;SDS011;42507;51.982;20.140;2022-08-19T10:10:11;9.28;;;5.85;;
56637;SDS011;42507;51.982;20.140;2022-08-19T10:12:38;8.18;;;6.75;;
56637;SDS011;42507;51.982;20.140;2022-08-19T10:15:05;11.22;;;6.17;;
56637;SDS011;42507;51.982;20.140;2022-08-19T10:17:32;7.08;;;6.35;;
56637;SDS011;42507;51.982;20.140;2022-08-19T10:20:00;10.10;;;6.83;;
56637;SDS011;42507;51.982;20.140;2022-08-19T10:22:29;10.40;;;6.85;;
56637;SDS011;42507;51.982;20.140;2022-08-19T10:24:55;7.67;;;6.83;;
56637;SDS011;42507;51.982;20.140;2022-08-19T10:27:22;8.58;;;6.37;;
56637;SDS011;42507;51.982;20.140;2022-08-19T10:29:49;7.65;;;6.10;;
56637;SDS011;42507;51.982;20.140;2022-08-19T10:32:15;7.58;;;6.08;;
56637;SDS011;42507;51.982;20.140;2022-08-19T10:34:41;9.55;;;6.50;;
56637;SDS011;42507;51.982;20.140;2022-08-19T10:37:08;7.25;;;6.08;;
56637;SDS011;42507;51.982;20.140;2022-08-19T10:39:35;9.23;;;6.08;;
56637;SDS011;42507;51.982;20.140;2022-08-19T10:42:05;7.67;;;5.80;;
56637;SDS011;42507;51.982;20.140;2022-08-19T10:44:33;7.37;;;6.25;;
56637;SDS011;42507;51.982;20.140;2022-08-19T10:47:01;9.45;;;6.78;;
56637;SDS011;42507;51.982;20.140;2022-08-19T10:49:29;10.58;;;6.10;;
56637;SDS011;42507;51.982;20.140;2022-08-19T10:51:56;7.40;;;5.97;;
56637;SDS011;42507;51.982;20.140;2022-08-19T10:54:40;10.70;;;6.12;;
56637;SDS011;42507;51.982;20.140;2022-08-19T10:57:29;10.88;;;5.92;;
56637;SDS011;42507;51.982;20.140;2022-08-19T10:59:57;12.40;;;5.78;;
56637;SDS011;42507;51.982;20.140;2022-08-19T11:02:23;6.53;;;5.60;;
56637;SDS011;42507;51.982;20.140;2022-08-19T11:04:49;8.38;;;6.25;;
56637;SDS011;42507;51.982;20.140;2022-08-19T11:07:17;6.95;;;5.28;;
56637;SDS011;42507;51.982;20.140;2022-08-19T11:09:43;7.70;;;6.28;;
56637;SDS011;42507;51.982;20.140;2022-08-19T11:12:09;7.58;;;5.85;;
56637;SDS011;42507;51.982;20.140;2022-08-19T11:14:35;7.67;;;5.80;;
56637;SDS011;42507;51.982;20.140;2022-08-19T11:17:03;9.78;;;6.33;;
56637;SDS011;42507;51.982;20.140;2022-08-19T11:19:31;11.08;;;5.72;;
56637;SDS011;42507;51.982;20.140;2022-08-19T11:21:57;7.10;;;6.20;;
56637;SDS011;42507;51.982;20.140;2022-08-19T11:24:26;9.10;;;6.33;;
56637;SDS011;42507;51.982;20.140;2022-08-19T11:26:55;10.20;;;6.08;;
56637;SDS011;42507;51.982;20.140;2022-08-19T11:29:26;8.40;;;6.20;;
56637;SDS011;42507;51.982;20.140;2022-08-19T11:31:53;6.62;;;5.90;;
56637;SDS011;42507;51.982;20.140;2022-08-19T11:34:22;8.70;;;6.60;;
56637;SDS011;42507;51.982;20.140;2022-08-19T11:36:53;12.23;;;6.73;;
56637;SDS011;42507;51.982;20.140;2022-08-19T11:39:23;9.65;;;6.40;;
56637;SDS011;42507;51.982;20.140;2022-08-19T11:41:51;14.75;;;7.12;;
56637;SDS011;42507;51.982;20.140;2022-08-19T11:44:17;15.45;;;7.53;;
56637;SDS011;42507;51.982;20.140;2022-08-19T11:46:44;11.75;;;6.58;;
56637;SDS011;42507;51.982;20.140;2022-08-19T11:49:12;12.23;;;7.35;;
56637;SDS011;42507;51.982;20.140;2022-08-19T11:51:40;12.15;;;7.53;;
56637;SDS011;42507;51.982;20.140;2022-08-19T11:54:10;9.73;;;6.75;;
56637;SDS011;42507;51.982;20.140;2022-08-19T11:56:38;11.05;;;7.58;;
56637;SDS011;42507;51.982;20.140;2022-08-19T11:59:05;11.05;;;7.15;;
56637;SDS011;42507;51.982;20.140;2022-08-19T12:01:33;8.73;;;6.75;;
56637;SDS011;42507;51.982;20.140;2022-08-19T12:03:59;10.35;;;6.87;;
56637;SDS011;42507;51.982;20.140;2022-08-19T12:06:29;15.23;;;6.83;;
56637;SDS011;42507;51.982;20.140;2022-08-19T12:08:58;12.43;;;6.97;;
56637;SDS011;42507;51.982;20.140;2022-08-19T12:11:29;12.00;;;7.22;;
56637;SDS011;42507;51.982;20.140;2022-08-19T12:13:55;10.65;;;7.40;;
56637;SDS011;42507;51.982;20.140;2022-08-19T12:16:22;12.58;;;6.97;;
56637;SDS011;42507;51.982;20.140;2022-08-19T12:18:52;8.95;;;6.40;;
56637;SDS011;42507;51.982;20.140;2022-08-19T12:21:21;14.00;;;7.40;;
56637;SDS011;42507;51.982;20.140;2022-08-19T12:23:52;11.18;;;7.12;;
56637;SDS011;42507;51.982;20.140;2022-08-19T12:26:20;10.40;;;6.50;;
56637;SDS011;42507;51.982;20.140;2022-08-19T12:28:47;8.85;;;6.50;;
56637;SDS011;42507;51.982;20.140;2022-08-19T12:31:14;7.53;;;6.30;;
56637;SDS011;42507;51.982;20.140;2022-08-19T12:33:41;7.65;;;6.87;;
56637;SDS011;42507;51.982;20.140;2022-08-19T12:36:08;10.28;;;6.85;;
56637;SDS011;42507;51.982;20.140;2022-08-19T12:38:37;12.80;;;6.85;;
56637;SDS011;42507;51.982;20.140;2022-08-19T12:41:05;11.93;;;6.95;;
56637;SDS011;42507;51.982;20.140;2022-08-19T12:43:37;8.13;;;6.28;;
56637;SDS011;42507;51.982;20.140;2022-08-19T12:46:01;10.23;;;6.87;;
56637;SDS011;42507;51.982;20.140;2022-08-19T12:48:30;8.58;;;6.20;;
56637;SDS011;42507;51.982;20.140;2022-08-19T12:50:57;10.50;;;6.78;;
56637;SDS011;42507;51.982;20.140;2022-08-19T12:53:24;9.78;;;6.55;;
56637;SDS011;42507;51.982;20.140;2022-08-19T12:55:57;8.35;;;6.58;;
56637;SDS011;42507;51.982;20.140;2022-08-19T12:58:25;7.10;;;6.50;;
56637;SDS011;42507;51.982;20.140;2022-08-19T13:00:53;9.78;;;6.45;;
56637;SDS011;42507;51.982;20.140;2022-08-19T13:03:19;7.87;;;6.45;;
56637;SDS011;42507;51.982;20.140;2022-08-19T13:05:45;10.53;;;6.50;;
56637;SDS011;42507;51.982;20.140;2022-08-19T13:08:11;7.83;;;7.03;;
56637;SDS011;42507;51.982;20.140;2022-08-19T13:10:37;9.80;;;6.60;;
56637;SDS011;42507;51.982;20.140;2022-08-19T13:13:04;8.65;;;6.70;;
56637;SDS011;42507;51.982;20.140;2022-08-19T13:15:33;11.03;;;6.67;;
56637;SDS011;42507;51.982;20.140;2022-08-19T13:18:02;8.75;;;6.97;;
56637;SDS011;42507;51.982;20.140;2022-08-19T13:20:29;9.30;;;6.40;;
56637;SDS011;42507;51.982;20.140;2022-08-19T13:22:55;10.82;;;6.55;;
56637;SDS011;42507;51.982;20.140;2022-08-19T13:25:22;12.05;;;6.33;;
56637;SDS011;42507;51.982;20.140;2022-08-19T13:27:49;11.08;;;6.33;;
56637;SDS011;42507;51.982;20.140;2022-08-19T13:30:17;11.83;;;6.90;;
56637;SDS011;42507;51.982;20.140;2022-08-19T13:33:03;10.28;;;7.00;;
56637;SDS011;42507;51.982;20.140;2022-08-19T13:35:44;10.78;;;6.78;;
56637;SDS011;42507;51.982;20.140;2022-08-19T13:38:17;11.78;;;6.75;;
56637;SDS011;42507;51.982;20.140;2022-08-19T13:40:46;6.70;;;6.10;;
56637;SDS011;42507;51.982;20.140;2022-08-19T13:43:14;9.83;;;7.05;;
56637;SDS011;42507;51.982;20.140;2022-08-19T13:45:41;10.60;;;7.10;;
56637;SDS011;42507;51.982;20.140;2022-08-19T13:48:07;8.35;;;7.35;;
56637;SDS011;42507;51.982;20.140;2022-08-19T13:50:37;7.00;;;6.30;;
56637;SDS011;42507;51.982;20.140;2022-08-19T13:53:08;8.25;;;6.53;;
56637;SDS011;42507;51.982;20.140;2022-08-19T13:55:39;12.78;;;6.53;;
56637;SDS011;42507;51.982;20.140;2022-08-19T13:58:07;9.15;;;6.83;;
56637;SDS011;42507;51.982;20.140;2022-08-19T14:00:37;9.20;;;5.95;;
56637;SDS011;42507;51.982;20.140;2022-08-19T14:03:06;13.62;;;6.75;;
56637;SDS011;42507;51.982;20.140;2022-08-19T14:05:32;11.45;;;7.17;;
56637;SDS011;42507;51.982;20.140;2022-08-19T14:07:59;9.65;;;7.12;;
56637;SDS011;42507;51.982;20.140;2022-08-19T14:10:26;8.88;;;7.40;;
56637;SDS011;42507;51.982;20.140;2022-08-19T14:12:57;9.95;;;6.78;;
56637;SDS011;42507;51.982;20.140;2022-08-19T14:15:27;9.98;;;6.70;;
56637;SDS011;42507;51.982;20.140;2022-08-19T14:18:15;9.38;;;6.05;;
56637;SDS011;42507;51.982;20.140;2022-08-19T14:20:43;8.30;;;6.50;;
56637;SDS011;42507;51.982;20.140;2022-08-19T14:23:10;13.05;;;6.42;;
56637;SDS011;42507;51.982;20.140;2022-08-19T14:25:38;9.60;;;6.50;;
56637;SDS011;42507;51.982;20.140;2022-08-19T14:28:04;8.85;;;5.60;;
56637;SDS011;42507;51.982;20.140;2022-08-19T14:30:31;6.78;;;6.17;;
56637;SDS011;42507;51.982;20.140;2022-08-19T14:33:00;9.48;;;7.15;;
56637;SDS011;42507;51.982;20.140;2022-08-19T14:35:28;7.42;;;6.55;;
56637;SDS011;42507;51.982;20.140;2022-08-19T14:37:56;8.68;;;6.28;;
56637;SDS011;42507;51.982;20.140;2022-08-19T14:40:24;7.97;;;6.67;;